Terminal Aerodrome Forecast
Issued by NWS

Home | Current Version | Previous Version | Text Only | Print | Product List | Glossary On
Versions: 1 2 3 4 5 6 7 8 9 10 11 12 13 14 15 16 17 18 19 20
000
FTUS46 KOTX 271949 AAA
TAFPUW
TAF AMD
KPUW 271949Z 2720/2818 25012G18KT P6SM VCSH SCT025 BKN035
      TEMPO 2721/2801 -SHRA BKN025 BKN050
     FM280300 26007KT P6SM SCT045 BKN100
     FM280700 23005KT P6SM SCT250
     FM281300 13005KT P6SM BKN200=

USA.gov is the U.S. government's official web portal to all federal, state and local government web resources and services.